sensor_id;sensor_type;location;lat;lon;timestamp;pressure;altitude;pressure_sealevel;temperature;humidity
49341;BME280;35209;51.050;13.678;2023-03-14T00:04:31;97866.34;;;10.67;100.00
49341;BME280;35209;51.050;13.678;2023-03-14T00:09:33;97838.28;;;10.54;100.00
49341;BME280;35209;51.050;13.678;2023-03-14T00:14:34;97822.13;;;10.73;100.00
49341;BME280;35209;51.050;13.678;2023-03-14T00:19:36;97824.63;;;10.75;100.00
49341;BME280;35209;51.050;13.678;2023-03-14T00:24:38;97831.06;;;10.83;100.00
49341;BME280;35209;51.050;13.678;2023-03-14T00:29:40;97816.59;;;10.38;100.00
49341;BME280;35209;51.050;13.678;2023-03-14T00:34:43;97811.97;;;10.42;100.00
49341;BME280;35209;51.050;13.678;2023-03-14T00:39:45;97827.69;;;10.02;100.00
49341;BME280;35209;51.050;13.678;2023-03-14T00:44:47;97840.94;;;10.13;100.00
49341;BME280;35209;51.050;13.678;2023-03-14T00:49:49;97822.75;;;9.97;100.00
49341;BME280;35209;51.050;13.678;2023-03-14T00:54:53;97827.09;;;10.11;100.00
49341;BME280;35209;51.050;13.678;2023-03-14T00:59:54;97844.47;;;9.99;100.00
49341;BME280;35209;51.050;13.678;2023-03-14T01:04:56;97857.94;;;9.80;100.00
49341;BME280;35209;51.050;13.678;2023-03-14T01:09:58;97842.78;;;9.71;100.00
49341;BME280;35209;51.050;13.678;2023-03-14T01:15:00;97843.72;;;9.56;100.00
49341;BME280;35209;51.050;13.678;2023-03-14T01:20:01;97824.53;;;9.97;100.00
49341;BME280;35209;51.050;13.678;2023-03-14T01:25:08;97808.69;;;10.25;100.00
49341;BME280;35209;51.050;13.678;2023-03-14T01:30:11;97827.63;;;10.16;100.00
49341;BME280;35209;51.050;13.678;2023-03-14T01:35:13;97827.13;;;10.24;100.00
49341;BME280;35209;51.050;13.678;2023-03-14T01:40:15;97841.72;;;10.15;100.00
49341;BME280;35209;51.050;13.678;2023-03-14T01:50:59;97810.69;;;10.34;100.00
49341;BME280;35209;51.050;13.678;2023-03-14T01:56:02;97810.91;;;10.31;100.00
49341;BME280;35209;51.050;13.678;2023-03-14T02:01:06;97810.31;;;10.41;100.00
49341;BME280;35209;51.050;13.678;2023-03-14T02:06:08;97805.59;;;10.46;100.00
49341;BME280;35209;51.050;13.678;2023-03-14T02:11:14;97791.84;;;10.68;100.00
49341;BME280;35209;51.050;13.678;2023-03-14T02:16:30;97794.38;;;10.69;100.00
49341;BME280;35209;51.050;13.678;2023-03-14T02:22:05;97790.91;;;10.69;100.00
49341;BME280;35209;51.050;13.678;2023-03-14T02:27:15;97788.47;;;10.78;98.98
49341;BME280;35209;51.050;13.678;2023-03-14T02:32:22;97776.50;;;10.74;99.33
49341;BME280;35209;51.050;13.678;2023-03-14T02:37:36;97783.63;;;10.59;99.80
49341;BME280;35209;51.050;13.678;2023-03-14T02:42:40;97787.72;;;10.51;99.61
49341;BME280;35209;51.050;13.678;2023-03-14T02:47:56;97788.47;;;10.78;96.55
49341;BME280;35209;51.050;13.678;2023-03-14T02:53:00;97785.13;;;10.89;93.67
49341;BME280;35209;51.050;13.678;2023-03-14T02:58:03;97793.41;;;10.96;91.51
49341;BME280;35209;51.050;13.678;2023-03-14T03:03:05;97774.38;;;11.18;89.31
49341;BME280;35209;51.050;13.678;2023-03-14T03:08:10;97767.13;;;11.08;89.71
49341;BME280;35209;51.050;13.678;2023-03-14T03:13:12;97765.78;;;11.03;90.17
49341;BME280;35209;51.050;13.678;2023-03-14T03:18:15;97763.47;;;10.85;91.83
49341;BME280;35209;51.050;13.678;2023-03-14T03:23:17;97763.66;;;10.95;89.62
49341;BME280;35209;51.050;13.678;2023-03-14T03:28:19;97762.84;;;10.95;88.29
49341;BME280;35209;51.050;13.678;2023-03-14T03:33:22;97763.56;;;10.84;89.33
49341;BME280;35209;51.050;13.678;2023-03-14T03:38:25;97769.44;;;10.88;88.57
49341;BME280;35209;51.050;13.678;2023-03-14T03:43:28;97779.75;;;11.03;85.39
49341;BME280;35209;51.050;13.678;2023-03-14T03:48:31;97767.75;;;11.25;83.14
49341;BME280;35209;51.050;13.678;2023-03-14T03:53:36;97769.56;;;10.99;86.43
49341;BME280;35209;51.050;13.678;2023-03-14T03:58:43;97780.44;;;11.31;81.63
49341;BME280;35209;51.050;13.678;2023-03-14T04:03:45;97747.38;;;10.90;85.41
49341;BME280;35209;51.050;13.678;2023-03-14T04:08:47;97764.75;;;10.67;87.26
49341;BME280;35209;51.050;13.678;2023-03-14T04:14:09;97767.13;;;10.83;84.55
49341;BME280;35209;51.050;13.678;2023-03-14T04:19:10;97779.84;;;11.02;83.14
49341;BME280;35209;51.050;13.678;2023-03-14T04:24:13;97782.38;;;10.91;83.29
49341;BME280;35209;51.050;13.678;2023-03-14T04:29:18;97767.44;;;10.53;86.92
49341;BME280;35209;51.050;13.678;2023-03-14T04:34:21;97760.19;;;10.56;87.66
49341;BME280;35209;51.050;13.678;2023-03-14T04:39:26;97752.16;;;10.20;88.75
49341;BME280;35209;51.050;13.678;2023-03-14T04:44:38;97759.47;;;10.42;85.43
49341;BME280;35209;51.050;13.678;2023-03-14T04:49:41;97749.06;;;10.53;83.91
49341;BME280;35209;51.050;13.678;2023-03-14T04:54:45;97755.13;;;10.53;82.56
49341;BME280;35209;51.050;13.678;2023-03-14T04:59:47;97756.84;;;10.54;81.67
49341;BME280;35209;51.050;13.678;2023-03-14T05:05:03;97735.41;;;10.60;80.29
49341;BME280;35209;51.050;13.678;2023-03-14T05:10:25;97725.72;;;10.35;82.64
49341;BME280;35209;51.050;13.678;2023-03-14T05:15:47;97740.44;;;10.51;81.44
49341;BME280;35209;51.050;13.678;2023-03-14T05:21:21;97745.50;;;10.41;84.90
49341;BME280;35209;51.050;13.678;2023-03-14T05:26:43;97742.88;;;10.41;82.34
49341;BME280;35209;51.050;13.678;2023-03-14T05:32:12;97743.38;;;10.33;83.73
49341;BME280;35209;51.050;13.678;2023-03-14T05:37:36;97736.22;;;10.35;82.79
49341;BME280;35209;51.050;13.678;2023-03-14T05:43:02;97735.91;;;10.27;83.23
49341;BME280;35209;51.050;13.678;2023-03-14T05:48:13;97726.03;;;10.31;81.87
49341;BME280;35209;51.050;13.678;2023-03-14T05:53:35;97721.75;;;10.43;81.52
49341;BME280;35209;51.050;13.678;2023-03-14T05:58:55;97728.91;;;10.41;80.82
49341;BME280;35209;51.050;13.678;2023-03-14T06:04:04;97714.81;;;10.42;81.11
49341;BME280;35209;51.050;13.678;2023-03-14T06:09:07;97705.44;;;10.25;82.55
49341;BME280;35209;51.050;13.678;2023-03-14T06:14:12;97710.91;;;10.47;79.86
49341;BME280;35209;51.050;13.678;2023-03-14T06:19:17;97733.28;;;10.66;79.87
49341;BME280;35209;51.050;13.678;2023-03-14T06:24:19;97740.44;;;10.38;81.41
49341;BME280;35209;51.050;13.678;2023-03-14T06:29:24;97734.97;;;10.41;80.95
49341;BME280;35209;51.050;13.678;2023-03-14T06:34:26;97749.47;;;10.47;79.41
49341;BME280;35209;51.050;13.678;2023-03-14T06:39:28;97768.59;;;10.61;79.44
49341;BME280;35209;51.050;13.678;2023-03-14T06:44:38;97769.75;;;10.96;76.28
49341;BME280;35209;51.050;13.678;2023-03-14T06:49:40;97769.56;;;10.99;76.62
49341;BME280;35209;51.050;13.678;2023-03-14T06:54:42;97774.91;;;10.97;78.16
49341;BME280;35209;51.050;13.678;2023-03-14T06:59:43;97771.88;;;10.91;78.08
49341;BME280;35209;51.050;13.678;2023-03-14T07:04:45;97752.72;;;11.01;77.26
49341;BME280;35209;51.050;13.678;2023-03-14T07:09:47;97769.09;;;11.18;76.87
49341;BME280;35209;51.050;13.678;2023-03-14T07:14:50;97766.16;;;11.09;77.13
49341;BME280;35209;51.050;13.678;2023-03-14T07:19:52;97771.84;;;11.16;76.56
49341;BME280;35209;51.050;13.678;2023-03-14T07:24:54;97762.91;;;11.06;77.70
49341;BME280;35209;51.050;13.678;2023-03-14T07:29:57;97772.03;;;11.39;74.98
49341;BME280;35209;51.050;13.678;2023-03-14T07:34:59;97772.88;;;11.26;75.19
49341;BME280;35209;51.050;13.678;2023-03-14T07:40:01;97769.94;;;11.31;75.37
49341;BME280;35209;51.050;13.678;2023-03-14T07:45:05;97773.81;;;11.38;75.38
49341;BME280;35209;51.050;13.678;2023-03-14T07:50:09;97777.50;;;11.23;77.42
49341;BME280;35209;51.050;13.678;2023-03-14T07:55:11;97774.88;;;11.23;77.39
49341;BME280;35209;51.050;13.678;2023-03-14T08:00:15;97775.28;;;11.42;75.55
49341;BME280;35209;51.050;13.678;2023-03-14T08:05:16;97756.41;;;11.48;74.99
49341;BME280;35209;51.050;13.678;2023-03-14T08:10:18;97759.72;;;11.39;77.50
49341;BME280;35209;51.050;13.678;2023-03-14T08:15:28;97760.34;;;11.43;74.76
49341;BME280;35209;51.050;13.678;2023-03-14T08:20:31;97770.50;;;11.60;73.82
49341;BME280;35209;51.050;13.678;2023-03-14T08:25:33;97765.28;;;11.95;70.75
49341;BME280;35209;51.050;13.678;2023-03-14T08:30:35;97763.41;;;11.97;69.56
49341;BME280;35209;51.050;13.678;2023-03-14T08:35:38;97765.59;;;12.03;69.55
49341;BME280;35209;51.050;13.678;2023-03-14T08:40:40;97762.03;;;12.16;68.29
49341;BME280;35209;51.050;13.678;2023-03-14T08:45:41;97760.50;;;12.13;69.51
49341;BME280;35209;51.050;13.678;2023-03-14T08:50:43;97761.84;;;12.30;67.65
49341;BME280;35209;51.050;13.678;2023-03-14T08:55:45;97753.03;;;12.42;65.05
49341;BME280;35209;51.050;13.678;2023-03-14T09:00:46;97760.59;;;12.47;64.28
49341;BME280;35209;51.050;13.678;2023-03-14T09:05:49;97749.91;;;12.48;64.81
49341;BME280;35209;51.050;13.678;2023-03-14T09:10:51;97739.28;;;12.61;65.38
49341;BME280;35209;51.050;13.678;2023-03-14T09:15:54;97755.56;;;12.55;64.88
49341;BME280;35209;51.050;13.678;2023-03-14T09:20:56;97752.09;;;12.66;65.26
49341;BME280;35209;51.050;13.678;2023-03-14T09:25:59;97761.38;;;12.71;64.34
49341;BME280;35209;51.050;13.678;2023-03-14T09:31:26;97753.56;;;12.58;65.42
49341;BME280;35209;51.050;13.678;2023-03-14T09:36:30;97767.44;;;12.49;67.68
49341;BME280;35209;51.050;13.678;2023-03-14T09:41:34;97767.91;;;12.54;64.92
49341;BME280;35209;51.050;13.678;2023-03-14T09:46:38;97769.31;;;12.47;63.86
49341;BME280;35209;51.050;13.678;2023-03-14T09:51:42;97773.50;;;12.38;66.25
49341;BME280;35209;51.050;13.678;2023-03-14T09:56:48;97766.75;;;12.23;68.60
49341;BME280;35209;51.050;13.678;2023-03-14T10:01:50;97776.44;;;12.23;65.83
49341;BME280;35209;51.050;13.678;2023-03-14T10:06:52;97777.09;;;12.37;64.40
49341;BME280;35209;51.050;13.678;2023-03-14T10:11:55;97781.13;;;12.30;63.95
49341;BME280;35209;51.050;13.678;2023-03-14T10:17:08;97778.50;;;12.30;64.17
49341;BME280;35209;51.050;13.678;2023-03-14T10:22:14;97786.66;;;12.27;62.23
49341;BME280;35209;51.050;13.678;2023-03-14T10:27:28;97766.84;;;12.22;62.38
49341;BME280;35209;51.050;13.678;2023-03-14T10:32:38;97772.63;;;12.27;64.29
49341;BME280;35209;51.050;13.678;2023-03-14T10:38:01;97771.06;;;12.24;65.48
49341;BME280;35209;51.050;13.678;2023-03-14T10:43:05;97776.88;;;12.41;62.14
49341;BME280;35209;51.050;13.678;2023-03-14T10:48:30;97768.72;;;12.08;65.79
49341;BME280;35209;51.050;13.678;2023-03-14T10:53:38;97772.22;;;12.09;64.80
49341;BME280;35209;51.050;13.678;2023-03-14T10:58:45;97773.22;;;12.30;65.01
49341;BME280;35209;51.050;13.678;2023-03-14T11:09:32;97786.16;;;12.33;63.82
49341;BME280;35209;51.050;13.678;2023-03-14T11:14:41;97775.56;;;12.46;62.81
49341;BME280;35209;51.050;13.678;2023-03-14T11:20:12;97769.56;;;12.44;64.30
49341;BME280;35209;51.050;13.678;2023-03-14T11:25:30;97754.69;;;12.43;63.07
49341;BME280;35209;51.050;13.678;2023-03-14T11:30:51;97764.94;;;12.59;65.08
49341;BME280;35209;51.050;13.678;2023-03-14T11:36:01;97759.59;;;12.94;62.87
49341;BME280;35209;51.050;13.678;2023-03-14T11:41:17;97746.41;;;13.39;59.71
49341;BME280;35209;51.050;13.678;2023-03-14T11:51:33;97732.47;;;13.14;60.43
49341;BME280;35209;51.050;13.678;2023-03-14T11:56:55;97724.56;;;13.14;61.27
49341;BME280;35209;51.050;13.678;2023-03-14T12:13:11;97715.75;;;13.59;58.14
49341;BME280;35209;51.050;13.678;2023-03-14T12:18:20;97716.63;;;13.59;59.24
49341;BME280;35209;51.050;13.678;2023-03-14T12:23:24;97698.69;;;13.74;56.89
49341;BME280;35209;51.050;13.678;2023-03-14T12:28:35;97690.63;;;13.87;58.42
49341;BME280;35209;51.050;13.678;2023-03-14T12:33:37;97709.56;;;13.81;57.86
49341;BME280;35209;51.050;13.678;2023-03-14T12:39:00;97706.09;;;13.80;56.98
49341;BME280;35209;51.050;13.678;2023-03-14T12:49:32;97709.91;;;13.55;58.05
49341;BME280;35209;51.050;13.678;2023-03-14T12:54:45;97689.44;;;13.80;59.15
49341;BME280;35209;51.050;13.678;2023-03-14T13:00:02;97685.09;;;13.90;58.45
49341;BME280;35209;51.050;13.678;2023-03-14T13:05:21;97680.75;;;13.89;58.54
49341;BME280;35209;51.050;13.678;2023-03-14T13:10:32;97688.56;;;14.11;56.50
49341;BME280;35209;51.050;13.678;2023-03-14T13:15:43;97676.13;;;13.81;55.96
49341;BME280;35209;51.050;13.678;2023-03-14T13:20:52;97671.31;;;13.75;56.26
49341;BME280;35209;51.050;13.678;2023-03-14T13:25:56;97667.78;;;13.65;56.96
49341;BME280;35209;51.050;13.678;2023-03-14T13:31:01;97655.88;;;13.71;56.64
49341;BME280;35209;51.050;13.678;2023-03-14T13:36:04;97664.25;;;13.76;56.46
49341;BME280;35209;51.050;13.678;2023-03-14T13:41:07;97653.84;;;13.95;57.42
49341;BME280;35209;51.050;13.678;2023-03-14T13:46:22;97665.06;;;13.76;57.82
49341;BME280;35209;51.050;13.678;2023-03-14T13:51:27;97660.38;;;13.80;57.21
49341;BME280;35209;51.050;13.678;2023-03-14T13:56:33;97656.88;;;13.91;57.77
49341;BME280;35209;51.050;13.678;2023-03-14T14:01:37;97657.50;;;13.83;56.56
49341;BME280;35209;51.050;13.678;2023-03-14T14:06:47;97654.88;;;13.72;57.39
49341;BME280;35209;51.050;13.678;2023-03-14T14:11:56;97648.47;;;13.65;56.72
49341;BME280;35209;51.050;13.678;2023-03-14T14:17:20;97643.63;;;13.70;57.70
49341;BME280;35209;51.050;13.678;2023-03-14T14:22:23;97632.72;;;13.95;56.69
49341;BME280;35209;51.050;13.678;2023-03-14T14:27:35;97621.81;;;13.88;56.35
49341;BME280;35209;51.050;13.678;2023-03-14T14:32:39;97614.72;;;13.89;56.71
49341;BME280;35209;51.050;13.678;2023-03-14T14:37:43;97626.31;;;13.98;55.31
49341;BME280;35209;51.050;13.678;2023-03-14T14:42:46;97625.16;;;13.70;55.86
49341;BME280;35209;51.050;13.678;2023-03-14T14:47:53;97624.91;;;13.73;56.63
49341;BME280;35209;51.050;13.678;2023-03-14T14:58:36;97621.94;;;13.66;56.13
49341;BME280;35209;51.050;13.678;2023-03-14T15:03:43;97620.00;;;13.68;56.63
49341;BME280;35209;51.050;13.678;2023-03-14T15:08:47;97629.03;;;13.54;56.87
49341;BME280;35209;51.050;13.678;2023-03-14T15:13:51;97617.13;;;13.39;58.22
49341;BME280;35209;51.050;13.678;2023-03-14T15:18:55;97623.81;;;13.43;57.77
49341;BME280;35209;51.050;13.678;2023-03-14T15:23:58;97623.84;;;13.21;58.17
49341;BME280;35209;51.050;13.678;2023-03-14T15:29:00;97626.38;;;13.22;58.77
49341;BME280;35209;51.050;13.678;2023-03-14T15:34:02;97627.97;;;13.25;58.53
49341;BME280;35209;51.050;13.678;2023-03-14T15:39:06;97636.22;;;13.20;58.80
49341;BME280;35209;51.050;13.678;2023-03-14T15:44:08;97631.88;;;13.19;59.50
49341;BME280;35209;51.050;13.678;2023-03-14T15:49:09;97637.28;;;13.18;59.98
49341;BME280;35209;51.050;13.678;2023-03-14T15:54:11;97650.97;;;13.23;59.24
49341;BME280;35209;51.050;13.678;2023-03-14T15:59:13;97649.41;;;13.09;59.84
49341;BME280;35209;51.050;13.678;2023-03-14T16:04:15;97663.69;;;13.06;60.29
49341;BME280;35209;51.050;13.678;2023-03-14T16:09:16;97664.16;;;13.00;60.34
49341;BME280;35209;51.050;13.678;2023-03-14T16:14:18;97694.75;;;12.92;61.84
49341;BME280;35209;51.050;13.678;2023-03-14T16:19:20;97723.00;;;12.78;62.14
49341;BME280;35209;51.050;13.678;2023-03-14T16:24:21;97747.16;;;12.38;67.51
49341;BME280;35209;51.050;13.678;2023-03-14T16:29:23;97766.41;;;11.80;76.91
49341;BME280;35209;51.050;13.678;2023-03-14T16:34:25;97794.38;;;11.07;85.98
49341;BME280;35209;51.050;13.678;2023-03-14T16:39:27;97811.38;;;10.64;94.00
49341;BME280;35209;51.050;13.678;2023-03-14T16:44:32;97953.19;;;9.24;87.59
49341;BME280;35209;51.050;13.678;2023-03-14T16:49:34;97956.19;;;7.61;94.87
49341;BME280;35209;51.050;13.678;2023-03-14T16:54:36;97989.72;;;6.85;100.00
49341;BME280;35209;51.050;13.678;2023-03-14T16:59:37;98027.19;;;6.48;100.00
49341;BME280;35209;51.050;13.678;2023-03-14T17:04:39;98071.41;;;6.32;100.00
49341;BME280;35209;51.050;13.678;2023-03-14T17:09:42;98100.09;;;6.13;100.00
49341;BME280;35209;51.050;13.678;2023-03-14T17:14:44;98148.94;;;6.10;100.00
49341;BME280;35209;51.050;13.678;2023-03-14T17:19:46;98170.56;;;5.71;100.00
49341;BME280;35209;51.050;13.678;2023-03-14T17:24:48;98228.31;;;5.40;100.00
49341;BME280;35209;51.050;13.678;2023-03-14T17:29:49;98286.16;;;5.26;100.00
49341;BME280;35209;51.050;13.678;2023-03-14T17:34:51;98318.69;;;4.92;100.00
49341;BME280;35209;51.050;13.678;2023-03-14T17:39:55;98368.47;;;4.58;100.00
49341;BME280;35209;51.050;13.678;2023-03-14T17:44:56;98402.53;;;4.25;100.00
49341;BME280;35209;51.050;13.678;2023-03-14T17:49:59;98435.69;;;3.61;100.00
49341;BME280;35209;51.050;13.678;2023-03-14T17:55:06;98477.44;;;3.24;100.00
49341;BME280;35209;51.050;13.678;2023-03-14T18:00:09;98499.19;;;3.20;100.00
49341;BME280;35209;51.050;13.678;2023-03-14T18:05:12;98516.63;;;3.15;100.00
49341;BME280;35209;51.050;13.678;2023-03-14T18:10:13;98532.34;;;3.10;100.00
49341;BME280;35209;51.050;13.678;2023-03-14T18:15:17;98571.22;;;3.12;100.00
49341;BME280;35209;51.050;13.678;2023-03-14T18:20:19;98579.25;;;3.02;100.00
49341;BME280;35209;51.050;13.678;2023-03-14T18:25:21;98589.97;;;2.87;100.00
49341;BME280;35209;51.050;13.678;2023-03-14T18:30:23;98616.69;;;2.92;100.00
49341;BME280;35209;51.050;13.678;2023-03-14T18:35:24;98633.88;;;2.96;100.00
49341;BME280;35209;51.050;13.678;2023-03-14T18:40:26;98657.69;;;3.14;100.00
49341;BME280;35209;51.050;13.678;2023-03-14T18:45:29;98681.06;;;3.15;100.00
49341;BME280;35209;51.050;13.678;2023-03-14T18:50:31;98677.59;;;3.15;100.00
49341;BME280;35209;51.050;13.678;2023-03-14T18:55:33;98673.22;;;3.17;100.00
49341;BME280;35209;51.050;13.678;2023-03-14T19:00:34;98694.22;;;3.08;100.00
49341;BME280;35209;51.050;13.678;2023-03-14T19:05:42;98695.94;;;3.07;100.00
49341;BME280;35209;51.050;13.678;2023-03-14T19:10:44;98709.97;;;3.36;100.00
49341;BME280;35209;51.050;13.678;2023-03-14T19:15:46;98723.81;;;3.38;100.00
49341;BME280;35209;51.050;13.678;2023-03-14T19:21:18;98735.63;;;3.51;100.00
49341;BME280;35209;51.050;13.678;2023-03-14T19:26:25;98747.88;;;3.46;100.00
49341;BME280;35209;51.050;13.678;2023-03-14T19:31:30;98773.91;;;3.43;100.00
49341;BME280;35209;51.050;13.678;2023-03-14T19:36:34;98788.69;;;3.39;99.77
49341;BME280;35209;51.050;13.678;2023-03-14T19:41:36;98796.44;;;3.42;100.00
49341;BME280;35209;51.050;13.678;2023-03-14T19:46:38;98803.50;;;3.36;99.11
49341;BME280;35209;51.050;13.678;2023-03-14T19:51:40;98815.56;;;3.38;98.75
49341;BME280;35209;51.050;13.678;2023-03-14T19:56:41;98836.59;;;3.26;96.23
49341;BME280;35209;51.050;13.678;2023-03-14T20:01:43;98841.25;;;3.12;97.68
49341;BME280;35209;51.050;13.678;2023-03-14T20:06:49;98853.97;;;3.24;94.54
49341;BME280;35209;51.050;13.678;2023-03-14T20:11:53;98872.44;;;3.10;95.89
49341;BME280;35209;51.050;13.678;2023-03-14T20:16:55;98873.97;;;3.20;92.28
49341;BME280;35209;51.050;13.678;2023-03-14T20:21:57;98894.50;;;3.33;90.45
49341;BME280;35209;51.050;13.678;2023-03-14T20:26:59;98895.72;;;3.15;92.16
49341;BME280;35209;51.050;13.678;2023-03-14T20:32:01;98908.19;;;3.39;90.57
49341;BME280;35209;51.050;13.678;2023-03-14T20:37:03;98922.91;;;3.39;89.95
49341;BME280;35209;51.050;13.678;2023-03-14T20:42:05;98934.91;;;3.44;89.51
49341;BME280;35209;51.050;13.678;2023-03-14T20:47:06;98941.25;;;3.33;89.71
49341;BME280;35209;51.050;13.678;2023-03-14T20:52:08;98942.63;;;3.49;85.95
49341;BME280;35209;51.050;13.678;2023-03-14T20:57:12;98944.50;;;3.42;84.21
49341;BME280;35209;51.050;13.678;2023-03-14T21:02:15;98960.28;;;3.32;82.59
49341;BME280;35209;51.050;13.678;2023-03-14T21:07:18;98965.53;;;3.30;81.43
49341;BME280;35209;51.050;13.678;2023-03-14T21:12:20;98981.00;;;3.35;78.88
49341;BME280;35209;51.050;13.678;2023-03-14T21:17:22;99002.09;;;3.18;79.43
49341;BME280;35209;51.050;13.678;2023-03-14T21:22:27;99002.34;;;3.04;80.48
49341;BME280;35209;51.050;13.678;2023-03-14T21:27:29;99007.53;;;3.06;78.67
49341;BME280;35209;51.050;13.678;2023-03-14T21:32:31;99023.03;;;3.10;78.15
49341;BME280;35209;51.050;13.678;2023-03-14T21:37:33;99023.09;;;3.07;77.05
49341;BME280;35209;51.050;13.678;2023-03-14T21:42:38;99028.59;;;2.89;76.88
49341;BME280;35209;51.050;13.678;2023-03-14T21:47:40;99038.28;;;2.79;77.69
49341;BME280;35209;51.050;13.678;2023-03-14T21:52:45;99051.97;;;2.87;76.96
49341;BME280;35209;51.050;13.678;2023-03-14T21:57:48;99060.66;;;2.85;76.21
49341;BME280;35209;51.050;13.678;2023-03-14T22:02:51;99070.28;;;2.78;76.63
49341;BME280;35209;51.050;13.678;2023-03-14T22:08:15;99079.97;;;2.67;76.95
49341;BME280;35209;51.050;13.678;2023-03-14T22:13:19;99084.63;;;2.45;77.91
49341;BME280;35209;51.050;13.678;2023-03-14T22:18:21;99096.47;;;2.63;75.99
49341;BME280;35209;51.050;13.678;2023-03-14T22:23:22;99112.06;;;2.61;75.68
49341;BME280;35209;51.050;13.678;2023-03-14T22:28:24;99131.09;;;2.60;74.62
49341;BME280;35209;51.050;13.678;2023-03-14T22:33:26;99128.66;;;2.49;75.23
49341;BME280;35209;51.050;13.678;2023-03-14T22:38:27;99142.56;;;2.44;74.86
49341;BME280;35209;51.050;13.678;2023-03-14T22:43:30;99151.19;;;2.46;73.28
49341;BME280;35209;51.050;13.678;2023-03-14T22:48:32;99164.25;;;2.40;74.44
49341;BME280;35209;51.050;13.678;2023-03-14T22:53:35;99166.13;;;2.27;76.41
49341;BME280;35209;51.050;13.678;2023-03-14T22:58:37;99161.84;;;2.23;76.60
49341;BME280;35209;51.050;13.678;2023-03-14T23:03:39;99167.00;;;2.24;77.27
49341;BME280;35209;51.050;13.678;2023-03-14T23:08:40;99181.09;;;2.02;80.42
49341;BME280;35209;51.050;13.678;2023-03-14T23:13:42;99183.44;;;2.23;78.48
49341;BME280;35209;51.050;13.678;2023-03-14T23:18:44;99193.00;;;2.21;77.79
49341;BME280;35209;51.050;13.678;2023-03-14T23:23:46;99199.94;;;2.18;77.14
49341;BME280;35209;51.050;13.678;2023-03-14T23:28:49;99206.97;;;2.08;76.49
49341;BME280;35209;51.050;13.678;2023-03-14T23:33:51;99200.81;;;2.15;75.52
49341;BME280;35209;51.050;13.678;2023-03-14T23:38:52;99207.63;;;2.24;74.90
49341;BME280;35209;51.050;13.678;2023-03-14T23:43:54;99212.19;;;2.05;76.02
49341;BME280;35209;51.050;13.678;2023-03-14T23:48:56;99221.63;;;2.09;76.38
49341;BME280;35209;51.050;13.678;2023-03-14T23:53:58;99230.38;;;2.00;76.40
49341;BME280;35209;51.050;13.678;2023-03-14T23:59:00;99241.63;;;1.99;76.58
